Flight Track Log - Related Links

Times and Time Zones

All times are in EDT time to prevent confusion due to time zone crossing. See the EGF4474 flight status page for this flight to view local times or setup timezone preferences in your user account.

Time Position Orientation Groundspeed Altitude Reporting Facility
EDT Latitude Longitude Course Direction KTS MPH feet Rate Location/Type
Tue 02:19:32 PM 35.9193 -78.7478 227° Southwest  Level FlightAware Approximate
Tue 02:20:19 PM 35.8772 -78.8039 346° North 157 181 800  Level Washington Center
Tue 02:25:15 PM 35.9911 -78.8394 41° Northeast 304 350 11,300 1,898 Climbing Washington Center
Tue 02:26:13 PM 36.0619 -78.7628 43° Northeast 311 358 12,000 458 Climbing Washington Center
Tue 02:27:13 PM 36.1244 -78.6906 43° Northeast 351 404 12,200 1,091 Climbing Washington Center
Tue 02:28:14 PM 36.2189 -78.5811 33° Northeast 381 438 14,200 1,770 Climbing Washington Center
Tue 02:29:15 PM 36.2978 -78.5169 33° Northeast 376 433 15,800 1,686 Climbing Washington Center
Tue 02:30:15 PM 36.3933 -78.4406 35° Northeast 371 427 17,600 1,650 Climbing Washington Center
Tue 02:31:15 PM 36.4700 -78.3736 47° Northeast 371 427 19,100 1,627 Climbing Washington Center
Tue 02:32:13 PM 36.5411 -78.2781 46° Northeast 371 427 20,800 1,563 Climbing Washington Center
Tue 02:33:14 PM 36.6164 -78.1797 49° Northeast 385 443 22,200 1,289 Climbing Washington Center
Tue 02:34:14 PM 36.6894 -78.0733 50° Northeast 390 449 23,400 1,200 Climbing Washington Center
Tue 02:35:14 PM 36.7628 -77.9642 52° Northeast 395 455 24,600 893 Climbing Washington Center
Tue 02:36:15 PM 36.8336 -77.8494 48° Northeast 405 466 25,200 559 Climbing Washington Center
Tue 02:37:12 PM 36.9172 -77.7350 51° Northeast 424 488 25,700 555 Climbing Washington Center
Tue 02:38:14 PM 36.9964 -77.6125 50° Northeast 438 504 26,300 537 Climbing Washington Center
Tue 02:39:15 PM 37.0778 -77.4922 50° Northeast 443 510 26,800 347 Climbing Washington Center
Tue 02:40:15 PM 37.1694 -77.3564 50° Northeast 452 520 27,000 102 Climbing Washington Center
Tue 02:41:13 PM 37.2506 -77.2331 47° Northeast 457 526 27,000  Level Washington Center
Tue 02:42:14 PM 37.3397 -77.1122 33° Northeast 464 534 27,000  Level Washington Center
Tue 02:43:14 PM 37.4514 -77.0203 29° Northeast 475 547 27,000  Level Washington Center
Tue 02:44:15 PM 37.5567 -76.9461 36° Northeast 480 552 27,000  Level Washington Center
Tue 02:45:15 PM 37.6619 -76.8483 44° Northeast 472 543 27,000  Level Washington Center
Tue 02:46:13 PM 37.7506 -76.7394 27° Northeast 457 526 27,000  Level Washington Center
Tue 02:47:14 PM 37.8639 -76.6650 25° Northeast 446 513 27,000  Level Washington Center
Tue 02:48:14 PM 37.9750 -76.5981 21° North 441 507 27,000  Level Washington Center
Tue 02:49:15 PM 38.0903 -76.5414 North 436 502 27,000  Level Washington Center
Tue 02:50:14 PM 38.2111 -76.5350 360° North 428 493 27,000  Level Washington Center
Tue 02:51:14 PM 38.3447 -76.5342 15° North 434 499 27,000  Level Washington Center
Tue 02:52:15 PM 38.4617 -76.4933 26° Northeast 434 499 27,000  Level Washington Center
Tue 02:53:15 PM 38.5686 -76.4256 51° Northeast 418 481 27,000  Level Washington Center
Tue 02:54:13 PM 38.6444 -76.3067 54° Northeast 411 473 27,000  Level Washington Center
Tue 02:55:13 PM 38.7158 -76.1822 54° Northeast 411 473 27,000  Level Washington Center
Tue 02:56:14 PM 38.7872 -76.0578 52° Northeast 425 489 27,000  Level Washington Center
Tue 02:57:13 PM 38.8628 -75.9328 53° Northeast 437 503 27,000 -50 Level Washington Center
Tue 02:58:13 PM 38.9381 -75.8050 39° Northeast 443 510 26,900  Descending Washington Center
Tue 02:59:14 PM 39.0342 -75.7039 36° Northeast 443 510 27,000 -298 Climbing Washington Center
Tue 03:00:14 PM 39.1342 -75.6103 36° Northeast 437 503 26,300 -1,488 Descending Washington Center
Tue 03:01:15 PM 39.2322 -75.5167 35° Northeast 443 510 24,000 -1,613 Descending Washington Center
Tue 03:02:13 PM 39.3281 -75.4306 33° Northeast 429 494 23,100 -1,550 Descending Washington Center
Tue 03:03:15 PM 39.4258 -75.3472 34° Northeast 423 487 20,900 -2,250 Descending Washington Center
Tue 03:04:13 PM 39.5172 -75.2661 36° Northeast 417 480 18,600 -1,664 Descending Washington Center
Tue 03:05:14 PM 39.6025 -75.1850 36° Northeast 398 458 17,600 -836 Descending Washington Center
Tue 03:06:15 PM 39.6833 -75.1089 34° Northeast 398 458 16,900 -1,109 Descending Washington Center
Tue 03:07:13 PM 39.7789 -75.0244 33° Northeast 386 444 15,400 -1,424 Descending Washington Center
Tue 03:08:13 PM 39.8556 -74.9592 37° Northeast 373 429 14,100 -1,388 Descending Washington Center
Tue 03:09:27 PM 39.9667 -74.8500 49° Northeast 358 412 12,300 -1,343 Descending New York TRACON
Tue 03:10:27 PM 40.0333 -74.7500 49° Northeast 356 410 11,100 -1,150 Descending New York TRACON
Tue 03:11:27 PM 40.1000 -74.6500 52° Northeast 349 402 10,000 -550 Descending New York TRACON
Tue 03:12:27 PM 40.1500 -74.5667 44° Northeast 343 395 10,000  Level New York TRACON
Tue 03:13:22 PM 40.2167 -74.4833 49° Northeast 343 395 10,000  Level New York TRACON
Tue 03:14:22 PM 40.2833 -74.3833 37° Northeast 346 398 10,000 -100 Level New York TRACON
Tue 03:15:22 PM 40.3500 -74.3167 52° Northeast 299 344 9,800 -1,000 Descending New York TRACON
Tue 03:16:22 PM 40.4000 -74.2333 37° Northeast 277 319 8,000 -1,762 Descending New York TRACON
Tue 03:17:28 PM 40.4667 -74.1667 37° Northeast 265 305 6,100 -1,429 Descending New York TRACON
Tue 03:18:28 PM 40.5167 -74.1167 45° Northeast 251 289 5,000 -700 Descending New York TRACON
Tue 03:19:28 PM 40.5667 -74.0500 37° Northeast 243 280 4,700 -1,150 Descending New York TRACON
Tue 03:20:28 PM 40.6167 -74.0000 37° Northeast 211 243 2,700 -2,000 Descending New York TRACON

Login

Don't have an account? Register now (free) for customized features, flight alerts, and more!